createdAt,value
2022-09-01T00:00:18.853Z,4.60
2022-09-01T00:02:46.911Z,4.40
2022-09-01T00:05:14.372Z,4.50
2022-09-01T00:07:42.183Z,4.60
2022-09-01T00:10:10.682Z,4.40
2022-09-01T00:12:38.586Z,4.30
2022-09-01T00:15:10.458Z,4.70
2022-09-01T00:17:38.567Z,4.70
2022-09-01T00:20:07.764Z,4.60
2022-09-01T00:22:35.320Z,4.60
2022-09-01T00:25:04.040Z,4.10
2022-09-01T00:27:32.487Z,4.50
2022-09-01T00:30:00.682Z,4.10
2022-09-01T00:32:29.077Z,4.80
2022-09-01T00:34:56.886Z,4.30
2022-09-01T00:37:24.360Z,4.50
2022-09-01T00:39:51.953Z,4.20
2022-09-01T00:42:19.495Z,4.30
2022-09-01T00:44:47.432Z,4.40
2022-09-01T00:47:16.693Z,4.70
2022-09-01T00:49:51.598Z,4.40
2022-09-01T00:52:40.595Z,4.90
2022-09-01T00:55:14.090Z,4.50
2022-09-01T00:57:42.703Z,4.50
2022-09-01T01:00:16.516Z,4.80
2022-09-01T01:02:45.204Z,4.50
2022-09-01T01:05:14.396Z,4.80
2022-09-01T01:07:47.651Z,4.00
2022-09-01T01:10:22.524Z,4.00
2022-09-01T01:12:51.754Z,3.70
2022-09-01T01:15:20.292Z,4.70
2022-09-01T01:17:47.693Z,4.10
2022-09-01T01:20:49.367Z,4.60
2022-09-01T01:23:24.334Z,5.20
2022-09-01T01:25:57.566Z,4.60
2022-09-01T01:28:33.193Z,4.40
2022-09-01T01:31:06.840Z,4.60
2022-09-01T01:33:46.527Z,4.60
2022-09-01T01:36:24.958Z,4.60
2022-09-01T01:38:53.987Z,4.90
2022-09-01T01:41:22.027Z,4.80
2022-09-01T01:43:51.150Z,4.70
2022-09-01T01:46:20.702Z,4.90
2022-09-01T01:48:52.486Z,5.20
2022-09-01T01:51:25.106Z,4.90
2022-09-01T01:53:52.864Z,5.00
2022-09-01T01:56:23.985Z,4.70
2022-09-01T02:01:28.919Z,5.00
2022-09-01T02:04:00.257Z,4.80
2022-09-01T02:06:28.807Z,4.60
2022-09-01T02:08:58.194Z,4.30
2022-09-01T02:11:27.027Z,4.80
2022-09-01T02:13:56.380Z,4.80
2022-09-01T02:16:27.608Z,4.80
2022-09-01T02:18:56.366Z,4.50
2022-09-01T02:21:27.185Z,4.50
2022-09-01T02:24:04.837Z,5.10
2022-09-01T02:26:38.707Z,5.20
2022-09-01T02:29:21.032Z,4.60
2022-09-01T02:31:53.143Z,4.60
2022-09-01T02:34:24.357Z,4.40
2022-09-01T02:36:55.025Z,4.80
2022-09-01T02:39:30.115Z,5.20
2022-09-01T02:41:57.685Z,4.80
2022-09-01T02:44:27.850Z,4.80
2022-09-01T02:46:56.108Z,4.80
2022-09-01T02:49:25.945Z,4.50
2022-09-01T02:52:00.699Z,4.70
2022-09-01T02:54:30.032Z,4.50
2022-09-01T02:56:57.523Z,4.60
2022-09-01T02:59:28.881Z,4.40
2022-09-01T03:01:57.572Z,5.10
2022-09-01T03:04:27.419Z,5.20
2022-09-01T03:06:58.820Z,4.60
2022-09-01T03:09:26.901Z,4.80
2022-09-01T03:11:55.303Z,4.80
2022-09-01T03:14:24.391Z,4.20
2022-09-01T03:16:52.300Z,4.40
2022-09-01T03:19:20.095Z,4.30
2022-09-01T03:21:48.789Z,4.40
2022-09-01T03:24:18.261Z,4.30
2022-09-01T03:26:49.915Z,4.10
2022-09-01T03:29:18.963Z,5.00
2022-09-01T03:31:46.965Z,4.40
2022-09-01T03:34:16.522Z,4.90
2022-09-01T03:36:50.472Z,4.70
2022-09-01T03:39:19.951Z,4.10
2022-09-01T03:41:47.578Z,4.70
2022-09-01T03:44:16.427Z,4.40
2022-09-01T03:46:44.958Z,4.00
2022-09-01T03:49:15.700Z,4.60
2022-09-01T03:51:45.287Z,4.10
2022-09-01T03:54:13.439Z,5.20
2022-09-01T03:56:43.125Z,4.70
2022-09-01T03:59:17.365Z,4.80
2022-09-01T04:01:46.497Z,4.80
2022-09-01T04:04:14.994Z,4.80
2022-09-01T04:06:45.231Z,4.20
2022-09-01T04:09:13.185Z,4.50
2022-09-01T04:11:45.834Z,4.90
2022-09-01T04:14:14.809Z,4.50
2022-09-01T04:17:02.603Z,4.90
2022-09-01T04:19:37.067Z,4.20
2022-09-01T04:22:08.084Z,4.50
2022-09-01T04:24:35.641Z,4.70
2022-09-01T04:27:04.139Z,4.30
2022-09-01T04:29:32.893Z,4.30
2022-09-01T04:32:08.128Z,4.30
2022-09-01T04:34:38.456Z,4.30
2022-09-01T04:37:15.085Z,4.90
2022-09-01T04:39:51.467Z,4.70
2022-09-01T04:42:24.360Z,4.70
2022-09-01T04:44:54.633Z,4.40
2022-09-01T04:47:35.184Z,5.10
2022-09-01T04:50:14.278Z,4.70
2022-09-01T04:52:47.926Z,4.30
2022-09-01T04:55:18.534Z,4.70
2022-09-01T04:57:50.056Z,4.60
2022-09-01T05:00:23.551Z,5.20
2022-09-01T05:03:04.547Z,4.50
2022-09-01T05:05:45.080Z,4.40
2022-09-01T05:08:23.314Z,4.50
2022-09-01T05:10:55.841Z,4.80
2022-09-01T05:13:24.321Z,4.60
2022-09-01T05:16:06.550Z,4.80
2022-09-01T05:18:34.144Z,4.70
2022-09-01T05:21:10.022Z,4.70
2022-09-01T05:23:40.555Z,5.20
2022-09-01T05:26:18.826Z,4.60
2022-09-01T05:28:50.116Z,5.00
2022-09-01T05:31:19.844Z,4.90
2022-09-01T05:33:50.064Z,4.50
2022-09-01T05:36:23.452Z,5.10
2022-09-01T05:38:52.481Z,5.20
2022-09-01T05:41:23.975Z,5.00
2022-09-01T05:43:57.792Z,4.90
2022-09-01T05:46:28.461Z,5.20
2022-09-01T05:48:57.293Z,5.20
2022-09-01T05:51:45.635Z,4.70
2022-09-01T05:54:14.516Z,5.00
2022-09-01T05:56:44.756Z,5.20
2022-09-01T05:59:23.327Z,4.90
2022-09-01T06:01:53.804Z,5.20
2022-09-01T06:04:22.955Z,4.90
2022-09-01T06:07:08.484Z,5.80
2022-09-01T06:09:43.486Z,5.10
2022-09-01T06:12:18.106Z,5.10
2022-09-01T06:14:48.562Z,5.10
2022-09-01T06:17:19.647Z,5.20
2022-09-01T06:22:14.687Z,5.70
2022-09-01T06:24:43.598Z,5.30
2022-09-01T06:27:13.092Z,5.30
2022-09-01T06:29:41.082Z,4.70
2022-09-01T06:32:10.571Z,5.70
2022-09-01T06:34:44.656Z,5.30
2022-09-01T06:37:13.503Z,5.00
2022-09-01T06:39:41.390Z,4.60
2022-09-01T06:42:10.012Z,4.70
2022-09-01T06:44:42.284Z,4.80
2022-09-01T06:47:09.766Z,4.80
2022-09-01T06:49:40.174Z,5.20
2022-09-01T06:52:08.594Z,5.00
2022-09-01T06:54:39.286Z,5.10
2022-09-01T06:59:54.705Z,5.00
2022-09-01T07:02:26.797Z,4.90
2022-09-01T07:05:58.859Z,5.00
2022-09-01T07:08:06.265Z,4.90
2022-09-01T07:11:18.902Z,5.00
2022-09-01T07:13:24.169Z,4.90
2022-09-01T07:18:42.627Z,4.90
2022-09-01T07:24:10.514Z,5.10
2022-09-01T07:26:48.285Z,4.50
2022-09-01T07:29:19.226Z,4.80
2022-09-01T07:31:50.155Z,5.50
2022-09-01T07:39:54.369Z,5.00
2022-09-01T07:45:28.856Z,5.00
2022-09-01T07:48:00.280Z,5.30
2022-09-01T07:53:24.031Z,5.10
2022-09-01T07:55:54.931Z,4.90
2022-09-01T08:00:55.277Z,4.90
2022-09-01T08:03:25.525Z,4.40
2022-09-01T08:05:57.774Z,4.80
2022-09-01T08:08:28.970Z,4.70
2022-09-01T08:11:04.859Z,4.10
2022-09-01T08:13:41.175Z,4.40
2022-09-01T08:16:18.436Z,4.50
2022-09-01T08:18:49.191Z,4.30
2022-09-01T08:21:22.279Z,4.30
2022-09-01T08:23:53.204Z,4.60
2022-09-01T08:26:24.734Z,4.10
2022-09-01T08:28:55.534Z,4.20
2022-09-01T08:31:25.072Z,4.50
2022-09-01T08:33:53.436Z,4.30
2022-09-01T08:36:23.974Z,3.80
2022-09-01T08:38:53.583Z,4.60
2022-09-01T08:41:36.007Z,4.80
2022-09-01T08:44:21.510Z,4.60
2022-09-01T08:46:56.474Z,3.90
2022-09-01T08:49:26.895Z,5.00
2022-09-01T08:52:08.474Z,4.20
2022-09-01T08:55:00.736Z,4.50
2022-09-01T08:57:41.472Z,4.30
2022-09-01T09:00:13.985Z,4.40
2022-09-01T09:02:51.658Z,4.40
2022-09-01T09:05:43.094Z,4.10
2022-09-01T09:08:58.791Z,5.40
2022-09-01T09:11:32.182Z,4.50
2022-09-01T09:14:23.110Z,4.00
2022-09-01T09:16:55.306Z,5.00
2022-09-01T09:19:29.550Z,4.50
2022-09-01T09:22:01.315Z,4.50
2022-09-01T09:24:29.174Z,4.10
2022-09-01T09:27:06.116Z,4.20
2022-09-01T09:29:37.086Z,4.30
2022-09-01T09:35:21.947Z,4.30
2022-09-01T09:37:50.051Z,4.40
2022-09-01T09:40:25.343Z,4.00
2022-09-01T09:42:55.863Z,4.10
2022-09-01T09:45:37.940Z,4.20
2022-09-01T09:48:29.246Z,4.50
2022-09-01T09:50:56.910Z,4.40
2022-09-01T09:53:25.543Z,4.50
2022-09-01T09:56:24.354Z,4.20
2022-09-01T09:58:53.464Z,4.50
2022-09-01T10:01:24.603Z,4.40
2022-09-01T10:03:57.110Z,4.80
2022-09-01T10:06:45.119Z,4.70
2022-09-01T10:09:37.542Z,4.80
2022-09-01T10:12:06.496Z,5.90
2022-09-01T10:14:59.019Z,5.70
2022-09-01T10:17:40.506Z,4.70
2022-09-01T10:20:22.654Z,4.30
2022-09-01T10:22:51.244Z,4.70
2022-09-01T10:25:29.150Z,4.40
2022-09-01T10:28:08.564Z,4.50
2022-09-01T10:30:42.753Z,3.90
2022-09-01T10:33:19.906Z,4.70
2022-09-01T10:35:52.751Z,4.50
2022-09-01T10:38:27.195Z,4.30
2022-09-01T10:41:14.747Z,4.30
2022-09-01T10:43:49.507Z,4.10
2022-09-01T10:46:24.811Z,4.10
2022-09-01T10:49:02.764Z,3.90
2022-09-01T10:51:39.076Z,3.70
2022-09-01T10:54:55.735Z,4.10
2022-09-01T10:57:45.858Z,4.20
2022-09-01T11:06:12.983Z,3.30
2022-09-01T11:08:51.063Z,3.40
2022-09-01T11:11:35.821Z,3.20
2022-09-01T11:14:06.874Z,2.70
2022-09-01T11:16:49.236Z,3.10
2022-09-01T11:19:58.300Z,2.70
2022-09-01T11:22:33.328Z,3.60
2022-09-01T11:25:41.718Z,3.30
2022-09-01T11:28:24.176Z,3.40
2022-09-01T11:31:19.559Z,3.20
2022-09-01T11:33:53.082Z,3.20
2022-09-01T11:36:47.306Z,3.10
2022-09-01T11:39:19.198Z,3.10
2022-09-01T11:41:59.622Z,3.40
2022-09-01T11:45:00.223Z,2.70
2022-09-01T11:47:38.568Z,2.70
2022-09-01T11:50:37.153Z,3.10
2022-09-01T11:53:15.346Z,3.00
2022-09-01T11:55:47.137Z,2.80
2022-09-01T11:58:34.504Z,3.00
2022-09-01T12:01:33.211Z,2.70
2022-09-01T12:04:28.700Z,2.70
2022-09-01T12:07:13.632Z,2.80
2022-09-01T12:09:46.808Z,2.90
2022-09-01T12:12:38.171Z,3.10
2022-09-01T12:15:26.649Z,2.80
2022-09-01T12:18:09.937Z,2.90
2022-09-01T12:20:39.255Z,2.70
2022-09-01T12:23:24.252Z,2.60
2022-09-01T12:25:55.849Z,3.30
2022-09-01T12:28:26.501Z,2.50
2022-09-01T12:31:07.357Z,3.00
2022-09-01T12:33:35.686Z,3.00
2022-09-01T12:36:28.614Z,3.10
2022-09-01T12:39:23.522Z,3.00
2022-09-01T12:42:03.124Z,3.00
2022-09-01T12:44:39.684Z,3.00
2022-09-01T12:47:13.079Z,3.00
2022-09-01T12:49:50.231Z,2.70
2022-09-01T12:52:22.277Z,2.80
2022-09-01T12:55:47.463Z,2.70
2022-09-01T12:58:08.240Z,3.00
2022-09-01T13:01:05.751Z,3.40
2022-09-01T13:03:36.351Z,2.70
2022-09-01T13:06:04.750Z,3.30
2022-09-01T13:08:35.193Z,3.10
2022-09-01T13:13:39.970Z,2.90
2022-09-01T13:16:14.012Z,3.50
2022-09-01T13:21:33.865Z,3.20
2022-09-01T13:24:05.452Z,3.00
2022-09-01T13:26:33.575Z,3.20
2022-09-01T13:29:01.408Z,2.90
2022-09-01T13:31:30.669Z,3.20
2022-09-01T13:34:23.447Z,3.10
2022-09-01T13:36:51.458Z,3.30
2022-09-01T13:39:21.347Z,2.90
2022-09-01T13:41:49.588Z,3.30
2022-09-01T13:44:18.703Z,3.00
2022-09-01T13:47:28.595Z,3.30
2022-09-01T13:49:43.595Z,3.10
2022-09-01T13:52:13.142Z,3.10
2022-09-01T13:54:40.981Z,2.80
2022-09-01T13:57:08.614Z,3.20
2022-09-01T13:59:36.338Z,2.90
2022-09-01T14:02:05.459Z,3.10
2022-09-01T14:04:33.129Z,2.80
2022-09-01T14:07:00.719Z,3.40
2022-09-01T14:09:28.421Z,3.20
2022-09-01T14:11:56.984Z,3.10
2022-09-01T14:14:24.545Z,2.90
2022-09-01T14:16:52.335Z,2.80
2022-09-01T14:19:20.149Z,3.20
2022-09-01T14:21:47.654Z,3.00
2022-09-01T14:24:20.010Z,3.00
2022-09-01T14:26:48.428Z,3.10
2022-09-01T14:29:16.725Z,3.10
2022-09-01T14:31:45.029Z,2.90
2022-09-01T14:34:13.184Z,3.10
2022-09-01T14:36:40.730Z,3.50
2022-09-01T14:39:08.287Z,2.90
2022-09-01T14:41:35.761Z,2.90
2022-09-01T14:44:03.818Z,3.00
2022-09-01T14:46:34.643Z,2.90
2022-09-01T14:49:04.536Z,3.00
2022-09-01T14:54:20.522Z,2.50
2022-09-01T14:59:36.716Z,2.80
2022-09-01T15:02:05.158Z,2.90
2022-09-01T15:04:32.770Z,2.80
2022-09-01T15:07:00.520Z,3.20
2022-09-01T15:09:28.017Z,2.70
2022-09-01T15:11:55.511Z,2.90
2022-09-01T15:14:24.485Z,2.80
2022-09-01T15:16:52.043Z,2.90
2022-09-01T15:19:19.734Z,2.50
2022-09-01T15:21:47.679Z,2.60
2022-09-01T15:24:15.381Z,2.80
2022-09-01T15:26:44.387Z,2.80
2022-09-01T15:29:15.254Z,2.90
2022-09-01T15:31:44.748Z,3.00
2022-09-01T15:34:13.844Z,2.80
2022-09-01T15:36:42.400Z,2.90
2022-09-01T15:39:10.657Z,3.00
2022-09-01T15:41:38.826Z,2.60
2022-09-01T15:44:07.791Z,2.70
2022-09-01T15:46:39.053Z,2.60
2022-09-01T15:49:10.520Z,2.80
2022-09-01T15:51:43.572Z,2.80
2022-09-01T15:54:16.000Z,2.90
2022-09-01T15:56:45.033Z,2.90
2022-09-01T15:59:13.126Z,2.80
2022-09-01T16:01:45.372Z,2.60
2022-09-01T16:04:19.259Z,2.50
2022-09-01T16:06:49.691Z,2.50
2022-09-01T16:09:21.218Z,2.90
2022-09-01T16:11:48.662Z,2.60
2022-09-01T16:14:16.199Z,2.80
2022-09-01T16:17:33.167Z,3.00
2022-09-01T16:20:11.302Z,2.90
2022-09-01T16:22:52.142Z,2.80
2022-09-01T16:25:34.759Z,2.60
2022-09-01T16:28:20.977Z,2.90
2022-09-01T16:30:54.558Z,2.80
2022-09-01T16:33:22.088Z,2.90
2022-09-01T16:36:08.085Z,3.00
2022-09-01T16:38:48.919Z,2.90
2022-09-01T16:41:54.264Z,3.40
2022-09-01T16:44:50.948Z,3.10
2022-09-01T16:47:36.840Z,3.40
2022-09-01T16:50:22.786Z,3.10
2022-09-01T16:53:08.817Z,2.80
2022-09-01T16:56:13.471Z,2.70
2022-09-01T17:02:22.563Z,3.20
2022-09-01T17:05:00.950Z,2.80
2022-09-01T17:07:39.842Z,3.10
2022-09-01T17:10:46.790Z,3.00
2022-09-01T17:13:36.438Z,3.30
2022-09-01T17:16:24.111Z,3.20
2022-09-01T17:18:59.872Z,2.90
2022-09-01T17:21:45.169Z,2.70
2022-09-01T17:24:24.236Z,3.00
2022-09-01T17:26:56.807Z,2.50
2022-09-01T17:29:32.858Z,3.50
2022-09-01T17:32:23.458Z,3.20
2022-09-01T17:35:16.162Z,3.70
2022-09-01T17:38:14.083Z,4.10
2022-09-01T17:41:34.857Z,4.80
2022-09-01T17:44:30.874Z,6.50
2022-09-01T17:47:12.747Z,3.00
2022-09-01T17:50:13.805Z,3.20
2022-09-01T17:53:26.239Z,3.00
2022-09-01T17:56:25.726Z,3.10
2022-09-01T17:59:04.046Z,3.50
2022-09-01T18:01:59.072Z,3.20
2022-09-01T18:04:52.159Z,3.10
2022-09-01T18:08:02.037Z,3.30
2022-09-01T18:10:37.309Z,3.20
2022-09-01T18:13:10.179Z,2.90
2022-09-01T18:15:52.560Z,3.50
2022-09-01T18:18:38.735Z,2.90
2022-09-01T18:21:17.843Z,2.80
2022-09-01T18:23:50.516Z,4.10
2022-09-01T18:26:30.052Z,3.30
2022-09-01T18:28:59.157Z,3.00
2022-09-01T18:31:33.855Z,3.30
2022-09-01T18:34:13.480Z,3.50
2022-09-01T18:37:14.757Z,3.50
2022-09-01T18:40:08.614Z,3.70
2022-09-01T18:42:50.388Z,3.70
2022-09-01T18:45:32.137Z,3.50
2022-09-01T18:48:30.162Z,3.20
2022-09-01T18:51:25.898Z,3.30
2022-09-01T18:54:02.669Z,3.70
2022-09-01T18:56:45.811Z,3.30
2022-09-01T18:59:44.699Z,3.50
2022-09-01T19:02:59.489Z,3.50
2022-09-01T19:05:54.081Z,3.60
2022-09-01T19:08:52.216Z,3.60
2022-09-01T19:11:37.525Z,3.50
2022-09-01T19:14:43.386Z,3.60
2022-09-01T19:17:38.052Z,3.10
2022-09-01T19:20:12.178Z,3.20
2022-09-01T19:22:45.598Z,3.60
2022-09-01T19:25:41.102Z,3.50
2022-09-01T19:28:37.552Z,3.50
2022-09-01T19:31:19.777Z,3.70
2022-09-01T19:34:11.059Z,3.60
2022-09-01T19:36:45.536Z,3.40
2022-09-01T19:39:22.024Z,3.60
2022-09-01T19:42:01.165Z,3.70
2022-09-01T19:44:52.457Z,3.60
2022-09-01T19:47:45.685Z,4.20
2022-09-01T19:50:31.224Z,4.10
2022-09-01T19:53:18.332Z,3.50
2022-09-01T19:55:56.625Z,4.00
2022-09-01T19:58:38.291Z,3.80
2022-09-01T20:01:12.322Z,3.90
2022-09-01T20:03:49.362Z,3.50
2022-09-01T20:06:33.565Z,3.80
2022-09-01T20:09:10.676Z,3.90
2022-09-01T20:11:59.748Z,4.00
2022-09-01T20:15:15.649Z,3.70
2022-09-01T20:17:48.571Z,3.70
2022-09-01T20:20:26.238Z,4.30
2022-09-01T20:23:08.196Z,4.20
2022-09-01T20:26:08.252Z,3.60
2022-09-01T20:28:41.971Z,3.30
2022-09-01T20:31:18.853Z,3.40
2022-09-01T20:34:19.887Z,3.60
2022-09-01T20:37:17.042Z,3.30
2022-09-01T20:40:04.790Z,3.40
2022-09-01T20:42:44.303Z,3.30
2022-09-01T20:45:23.112Z,3.50
2022-09-01T20:48:06.605Z,3.30
2022-09-01T20:51:01.609Z,3.30
2022-09-01T20:54:04.601Z,3.40
2022-09-01T20:56:56.412Z,3.30
2022-09-01T20:59:53.973Z,3.40
2022-09-01T21:02:44.393Z,3.40
2022-09-01T21:05:41.633Z,3.10
2022-09-01T21:08:46.725Z,3.20
2022-09-01T21:11:35.068Z,3.30
2022-09-01T21:14:14.380Z,3.50
2022-09-01T21:17:11.499Z,3.50
2022-09-01T21:19:51.304Z,3.30
2022-09-01T21:22:22.224Z,3.30
2022-09-01T21:24:51.088Z,3.30
2022-09-01T21:27:31.368Z,3.50
2022-09-01T21:30:06.608Z,3.50
2022-09-01T21:32:35.382Z,3.10
2022-09-01T21:35:06.885Z,3.30
2022-09-01T21:37:35.118Z,3.60
2022-09-01T21:40:04.190Z,3.40
2022-09-01T21:42:42.348Z,3.10
2022-09-01T21:45:15.149Z,3.00
2022-09-01T21:47:44.936Z,3.50
2022-09-01T21:50:14.894Z,3.40
2022-09-01T21:52:42.640Z,3.50
2022-09-01T21:55:11.183Z,3.20
2022-09-01T21:57:39.258Z,2.90
2022-09-01T22:00:16.097Z,3.00
2022-09-01T22:02:45.026Z,2.80
2022-09-01T22:05:13.389Z,2.90
2022-09-01T22:07:44.814Z,3.30
2022-09-01T22:10:18.001Z,3.10
2022-09-01T22:12:49.417Z,3.20
2022-09-01T22:15:21.380Z,2.90
2022-09-01T22:17:50.004Z,2.80
2022-09-01T22:20:22.343Z,3.00
2022-09-01T22:22:51.356Z,3.30
2022-09-01T22:25:23.966Z,2.70
2022-09-01T22:27:51.663Z,2.80
2022-09-01T22:30:19.401Z,3.10
2022-09-01T22:32:48.061Z,2.90
2022-09-01T22:35:16.962Z,2.90
2022-09-01T22:37:44.979Z,2.70
2022-09-01T22:40:15.641Z,3.00
2022-09-01T22:42:43.303Z,2.70
2022-09-01T22:45:13.524Z,2.90
2022-09-01T22:47:41.167Z,3.10
2022-09-01T22:50:09.913Z,3.30
2022-09-01T22:52:37.395Z,2.90
2022-09-01T22:55:06.266Z,2.80
2022-09-01T22:57:34.171Z,2.50
2022-09-01T23:00:06.773Z,2.70
2022-09-01T23:02:35.021Z,2.80
2022-09-01T23:05:02.768Z,3.00
2022-09-01T23:07:37.780Z,3.10
2022-09-01T23:10:08.982Z,2.70
2022-09-01T23:12:37.477Z,2.90
2022-09-01T23:15:05.737Z,3.10
2022-09-01T23:17:33.205Z,3.20
2022-09-01T23:20:02.326Z,2.80
2022-09-01T23:22:29.904Z,2.70
2022-09-01T23:24:57.519Z,3.00
2022-09-01T23:27:25.041Z,2.60
2022-09-01T23:29:52.753Z,3.00
2022-09-01T23:32:20.253Z,3.00
2022-09-01T23:34:47.895Z,2.80
2022-09-01T23:37:15.424Z,2.80
2022-09-01T23:39:43.087Z,2.90
2022-09-01T23:42:10.639Z,2.60
2022-09-01T23:44:39.570Z,3.00
2022-09-01T23:47:07.149Z,2.80
2022-09-01T23:49:34.574Z,2.80
2022-09-01T23:52:02.362Z,3.20
2022-09-01T23:54:29.955Z,2.70
2022-09-01T23:56:57.583Z,2.70
2022-09-01T23:59:27.596Z,3.10
